createdAt,value
2018-11-23T00:00:13.392Z,25.43
2018-11-23T00:02:42.833Z,26.70
2018-11-23T00:05:12.356Z,21.67
2018-11-23T00:07:41.335Z,20.03
2018-11-23T00:10:11.710Z,18.90
2018-11-23T00:12:40.236Z,21.17
2018-11-23T00:15:11.612Z,19.70
2018-11-23T00:17:40.324Z,25.10
2018-11-23T00:20:10.669Z,24.67
2018-11-23T00:22:40.164Z,26.97
2018-11-23T00:25:10.149Z,26.13
2018-11-23T00:27:38.767Z,24.33
2018-11-23T00:30:11.482Z,24.13
2018-11-23T00:32:40.377Z,25.07
2018-11-23T00:35:10.362Z,21.87
2018-11-23T00:37:39.043Z,24.30
2018-11-23T00:40:09.596Z,21.63
2018-11-23T00:42:38.073Z,19.73
2018-11-23T00:45:08.757Z,22.87
2018-11-23T00:47:37.499Z,23.60
2018-11-23T00:50:08.196Z,24.67
2018-11-23T00:52:36.798Z,24.70
2018-11-23T00:55:06.750Z,24.60
2018-11-23T00:57:35.483Z,24.27
2018-11-23T01:00:04.971Z,23.53
2018-11-23T01:02:33.441Z,22.97
2018-11-23T01:05:02.491Z,25.70
2018-11-23T01:07:30.992Z,26.07
2018-11-23T01:10:08.009Z,22.03
2018-11-23T01:12:36.481Z,25.47
2018-11-23T01:15:05.163Z,25.90
2018-11-23T01:17:33.831Z,26.60
2018-11-23T01:20:02.344Z,25.63
2018-11-23T01:22:30.920Z,25.83
2018-11-23T01:24:59.378Z,26.03
2018-11-23T01:27:27.886Z,25.53
2018-11-23T01:29:56.337Z,23.70
2018-11-23T01:32:24.917Z,25.47
2018-11-23T01:34:55.050Z,20.80
2018-11-23T01:37:23.919Z,17.47
2018-11-23T01:39:52.614Z,17.50
2018-11-23T01:42:21.155Z,20.53
2018-11-23T01:44:50.618Z,18.27
2018-11-23T01:47:21.157Z,16.30
2018-11-23T01:49:49.710Z,21.40
2018-11-23T01:52:18.649Z,24.77
2018-11-23T01:54:47.130Z,24.13
2018-11-23T01:57:15.811Z,20.30
2018-11-23T01:59:44.364Z,21.80
2018-11-23T02:02:13.674Z,20.83
2018-11-23T02:04:42.814Z,21.60
2018-11-23T02:07:11.286Z,23.43
2018-11-23T02:09:39.776Z,18.23
2018-11-23T02:12:08.218Z,24.37
2018-11-23T02:14:36.738Z,23.83
2018-11-23T02:17:05.269Z,24.83
2018-11-23T02:19:33.813Z,18.33
2018-11-23T02:22:02.426Z,23.17
2018-11-23T02:24:31.637Z,26.60
2018-11-23T02:27:00.304Z,25.53
2018-11-23T02:29:28.818Z,25.13
2018-11-23T02:31:58.063Z,25.27
2018-11-23T02:34:26.568Z,22.83
2018-11-23T02:36:55.102Z,20.73
2018-11-23T02:39:23.630Z,23.83
2018-11-23T02:41:52.097Z,23.40
2018-11-23T02:44:20.595Z,20.40
2018-11-23T02:46:49.073Z,22.87
2018-11-23T02:49:17.730Z,25.17
2018-11-23T02:51:46.278Z,20.67
2018-11-23T02:54:14.690Z,25.23
2018-11-23T02:56:45.183Z,25.97
2018-11-23T02:59:13.771Z,23.37
2018-11-23T03:01:42.318Z,25.73
2018-11-23T03:04:11.551Z,24.70
2018-11-23T03:06:40.088Z,24.20
2018-11-23T03:09:09.536Z,24.67
2018-11-23T03:11:40.888Z,24.67
2018-11-23T03:14:10.611Z,26.70
2018-11-23T03:16:39.285Z,24.17
2018-11-23T03:19:08.460Z,20.67
2018-11-23T03:21:37.022Z,19.97
2018-11-23T03:24:05.885Z,17.47
2018-11-23T03:26:34.423Z,24.47
2018-11-23T03:29:02.914Z,27.10
2018-11-23T03:31:31.958Z,24.87
2018-11-23T03:34:01.586Z,23.50
2018-11-23T03:36:30.101Z,25.57
2018-11-23T03:38:58.630Z,25.63
2018-11-23T03:41:27.160Z,25.27
2018-11-23T03:43:56.366Z,25.63
2018-11-23T03:46:24.863Z,25.10
2018-11-23T03:48:53.350Z,22.10
2018-11-23T03:51:21.862Z,24.77
2018-11-23T03:53:50.358Z,22.10
2018-11-23T03:56:18.885Z,24.37
2018-11-23T03:58:48.006Z,18.07
2018-11-23T04:01:17.743Z,17.93
2018-11-23T04:03:46.533Z,23.50
2018-11-23T04:06:15.167Z,24.63
2018-11-23T04:08:43.711Z,19.60
2018-11-23T04:11:12.913Z,23.70
2018-11-23T04:13:41.813Z,24.60
2018-11-23T04:16:10.267Z,23.83
2018-11-23T04:18:38.748Z,22.57
2018-11-23T04:21:07.293Z,22.17
2018-11-23T04:23:35.917Z,16.80
2018-11-23T04:26:04.473Z,21.30
2018-11-23T04:28:32.921Z,22.57
2018-11-23T04:31:01.601Z,21.27
2018-11-23T04:33:30.139Z,24.10
2018-11-23T04:35:59.284Z,24.20
2018-11-23T04:38:27.998Z,23.30
2018-11-23T04:40:56.527Z,24.77
2018-11-23T04:43:25.901Z,24.37
2018-11-23T04:45:54.956Z,23.03
2018-11-23T04:48:23.511Z,22.70
2018-11-23T04:50:51.988Z,20.10
2018-11-23T04:53:20.647Z,19.40
2018-11-23T04:55:49.136Z,22.13
2018-11-23T04:58:18.252Z,22.73
2018-11-23T05:00:46.702Z,22.17
2018-11-23T05:03:15.322Z,22.50
2018-11-23T05:05:44.539Z,21.00
2018-11-23T05:08:13.085Z,22.33
2018-11-23T05:10:41.641Z,21.93
2018-11-23T05:13:10.239Z,23.23
2018-11-23T05:15:38.720Z,23.27
2018-11-23T05:18:08.026Z,20.87
2018-11-23T05:20:36.564Z,23.27
2018-11-23T05:23:05.361Z,21.97
2018-11-23T05:25:33.987Z,21.80
2018-11-23T05:28:02.535Z,22.20
2018-11-23T05:30:31.045Z,24.27
2018-11-23T05:32:59.534Z,23.03
2018-11-23T05:35:28.040Z,21.30
2018-11-23T05:37:56.540Z,17.33
2018-11-23T05:40:25.136Z,18.33
2018-11-23T05:42:53.791Z,21.23
2018-11-23T05:45:22.746Z,21.90
2018-11-23T05:47:51.553Z,22.47
2018-11-23T05:50:22.522Z,20.37
2018-11-23T05:52:51.181Z,20.87
2018-11-23T05:55:19.924Z,14.93
2018-11-23T05:57:48.715Z,22.30
2018-11-23T06:00:19.526Z,20.80
2018-11-23T06:02:48.589Z,18.90
2018-11-23T06:05:17.065Z,21.20
2018-11-23T06:07:45.650Z,21.70
2018-11-23T06:10:17.931Z,21.33
2018-11-23T06:12:47.114Z,20.33
2018-11-23T06:15:17.678Z,18.10
2018-11-23T06:17:46.549Z,23.33
2018-11-23T06:20:16.998Z,24.00
2018-11-23T06:22:46.373Z,22.50
2018-11-23T06:25:34.136Z,19.73
2018-11-23T06:28:02.810Z,21.60
2018-11-23T06:30:31.342Z,17.47
2018-11-23T06:33:11.140Z,22.93
2018-11-23T06:35:40.702Z,23.30
2018-11-23T06:38:09.184Z,24.07
2018-11-23T06:40:37.961Z,21.80
2018-11-23T06:43:06.929Z,23.13
2018-11-23T06:45:40.229Z,23.87
2018-11-23T06:48:09.754Z,21.77
2018-11-23T06:50:38.290Z,22.97
2018-11-23T06:53:06.991Z,21.37
2018-11-23T06:55:36.215Z,19.67
2018-11-23T06:58:05.079Z,16.67
2018-11-23T07:00:33.599Z,24.07
2018-11-23T07:03:02.719Z,18.30
2018-11-23T07:05:31.386Z,20.37
2018-11-23T07:07:59.901Z,16.47
2018-11-23T07:10:28.342Z,21.50
2018-11-23T07:12:56.866Z,20.23
2018-11-23T07:15:25.574Z,22.33
2018-11-23T07:17:54.135Z,18.37
2018-11-23T07:20:22.675Z,19.87
2018-11-23T07:22:51.197Z,22.67
2018-11-23T07:25:19.735Z,22.30
2018-11-23T07:27:48.306Z,19.57
2018-11-23T07:30:21.758Z,19.97
2018-11-23T07:32:50.384Z,19.07
2018-11-23T07:35:18.894Z,18.03
2018-11-23T07:37:47.544Z,19.80
2018-11-23T07:40:28.847Z,18.10
2018-11-23T07:42:58.184Z,22.13
2018-11-23T07:45:27.418Z,18.53
2018-11-23T07:47:56.526Z,20.27
2018-11-23T07:50:25.030Z,17.33
2018-11-23T07:52:53.646Z,18.93
2018-11-23T07:55:22.159Z,17.27
2018-11-23T07:57:51.896Z,20.07
2018-11-23T08:00:22.855Z,19.63
2018-11-23T08:02:52.029Z,17.63
2018-11-23T08:05:21.230Z,18.30
2018-11-23T08:07:50.327Z,19.30
2018-11-23T08:10:18.034Z,17.70
2018-11-23T08:12:47.926Z,21.27
2018-11-23T08:15:18.820Z,22.03
2018-11-23T08:17:47.344Z,20.00
2018-11-23T08:20:17.208Z,18.83
2018-11-23T08:22:45.846Z,19.83
2018-11-23T08:25:15.706Z,20.20
2018-11-23T08:27:45.188Z,19.13
2018-11-23T08:30:17.317Z,16.90
2018-11-23T08:32:46.421Z,20.63
2018-11-23T08:35:15.028Z,19.50
2018-11-23T08:37:43.754Z,19.93
2018-11-23T08:40:18.805Z,19.00
2018-11-23T08:42:48.121Z,18.87
2018-11-23T08:45:19.098Z,18.87
2018-11-23T08:47:48.467Z,15.63
2018-11-23T08:50:20.234Z,17.93
2018-11-23T08:52:48.841Z,18.50
2018-11-23T08:55:17.889Z,15.83
2018-11-23T08:57:46.373Z,18.27
2018-11-23T09:00:18.815Z,16.47
2018-11-23T09:02:48.465Z,15.83
2018-11-23T09:05:17.345Z,19.43
2018-11-23T09:07:46.919Z,18.03
2018-11-23T09:10:17.241Z,14.83
2018-11-23T09:12:47.609Z,14.70
2018-11-23T09:15:17.511Z,14.37
2018-11-23T09:17:45.618Z,13.43
2018-11-23T09:20:14.692Z,16.83
2018-11-23T09:22:43.254Z,15.67
2018-11-23T09:25:16.057Z,18.57
2018-11-23T09:27:44.606Z,17.83
2018-11-23T09:30:19.245Z,20.57
2018-11-23T09:32:49.453Z,17.93
2018-11-23T09:35:18.679Z,20.03
2018-11-23T09:37:47.664Z,14.47
2018-11-23T09:40:17.674Z,19.97
2018-11-23T09:42:46.236Z,18.90
2018-11-23T09:45:16.935Z,17.60
2018-11-23T09:47:46.435Z,18.80
2018-11-23T09:50:16.353Z,18.63
2018-11-23T09:52:45.756Z,18.70
2018-11-23T09:55:14.425Z,19.70
2018-11-23T09:57:42.906Z,20.17
2018-11-23T10:00:13.574Z,19.63
2018-11-23T10:02:42.562Z,18.33
2018-11-23T10:05:12.862Z,16.33
2018-11-23T10:07:42.953Z,17.57
2018-11-23T10:10:12.894Z,19.90
2018-11-23T10:12:41.905Z,17.60
2018-11-23T10:15:11.845Z,15.97
2018-11-23T10:17:40.412Z,19.40
2018-11-23T10:20:10.918Z,16.97
2018-11-23T10:22:39.413Z,18.57
2018-11-23T10:25:09.103Z,20.03
2018-11-23T10:27:38.040Z,19.40
2018-11-23T10:30:09.175Z,18.63
2018-11-23T10:32:37.829Z,17.53
2018-11-23T10:35:07.581Z,19.30
2018-11-23T10:37:36.214Z,17.83
2018-11-23T10:40:07.204Z,17.47
2018-11-23T10:42:36.228Z,15.80
2018-11-23T10:45:06.528Z,16.77
2018-11-23T10:47:35.538Z,17.10
2018-11-23T10:50:04.721Z,14.83
2018-11-23T10:52:33.776Z,16.97
2018-11-23T10:55:02.283Z,15.80
2018-11-23T10:57:30.754Z,17.30
2018-11-23T10:59:59.313Z,15.47
2018-11-23T11:02:33.269Z,17.93
2018-11-23T11:05:41.938Z,18.50
2018-11-23T11:08:10.902Z,15.93
2018-11-23T11:10:39.442Z,18.57
2018-11-23T11:13:08.684Z,18.43
2018-11-23T11:15:37.178Z,15.13
2018-11-23T11:18:06.494Z,18.23
2018-11-23T11:20:34.982Z,15.43
2018-11-23T11:23:03.521Z,18.07
2018-11-23T11:25:32.154Z,19.20
2018-11-23T11:28:00.626Z,19.40
2018-11-23T11:30:29.303Z,19.90
2018-11-23T11:32:57.830Z,18.90
2018-11-23T11:35:26.389Z,19.07
2018-11-23T11:37:55.033Z,17.33
2018-11-23T11:40:23.577Z,18.00
2018-11-23T11:42:52.496Z,17.83
2018-11-23T11:45:21.786Z,18.90
2018-11-23T11:47:50.322Z,17.37
2018-11-23T11:50:18.786Z,16.67
2018-11-23T11:52:48.391Z,16.27
2018-11-23T11:55:18.835Z,16.40
2018-11-23T11:57:47.804Z,14.77
2018-11-23T12:00:19.566Z,15.43
2018-11-23T12:02:48.383Z,14.20
2018-11-23T12:05:17.590Z,16.13
2018-11-23T12:07:46.706Z,15.43
2018-11-23T12:10:24.497Z,15.37
2018-11-23T12:12:53.173Z,16.17
2018-11-23T12:15:22.473Z,14.43
2018-11-23T12:17:51.017Z,12.50
2018-11-23T12:20:21.158Z,14.47
2018-11-23T12:22:50.618Z,14.30
2018-11-23T12:25:19.543Z,13.67
2018-11-23T12:27:49.274Z,12.13
2018-11-23T12:30:19.319Z,13.17
2018-11-23T12:32:49.193Z,12.70
2018-11-23T12:35:18.737Z,13.23
2018-11-23T12:37:47.249Z,11.73
2018-11-23T12:40:17.130Z,13.10
2018-11-23T12:42:46.693Z,12.67
2018-11-23T12:45:23.247Z,13.10
2018-11-23T12:47:51.866Z,13.57
2018-11-23T12:50:21.706Z,11.07
2018-11-23T12:52:50.276Z,10.87
2018-11-23T12:55:19.477Z,13.67
2018-11-23T12:57:48.060Z,12.10
2018-11-23T13:00:28.983Z,12.50
2018-11-23T13:02:59.555Z,12.17
2018-11-23T13:05:28.909Z,12.23
2018-11-23T13:07:58.614Z,12.93
2018-11-23T13:10:27.506Z,11.23
2018-11-23T13:12:56.758Z,11.80
2018-11-23T13:15:25.343Z,10.33
2018-11-23T13:17:54.233Z,11.97
2018-11-23T13:20:22.785Z,10.93
2018-11-23T13:22:51.306Z,9.50
2018-11-23T13:25:21.233Z,11.43
2018-11-23T13:27:50.287Z,9.73
2018-11-23T13:30:21.780Z,9.33
2018-11-23T13:32:50.922Z,9.60
2018-11-23T13:35:19.939Z,9.93
2018-11-23T13:37:48.809Z,10.13
2018-11-23T13:40:19.282Z,8.50
2018-11-23T13:42:48.589Z,8.13
2018-11-23T13:45:19.275Z,8.43
2018-11-23T13:47:47.888Z,5.97
2018-11-23T13:50:17.783Z,6.90
2018-11-23T13:52:47.516Z,7.30
2018-11-23T13:55:16.109Z,7.30
2018-11-23T13:57:44.765Z,7.33
2018-11-23T14:00:18.559Z,7.30
2018-11-23T14:02:47.366Z,7.40
2018-11-23T14:05:17.268Z,7.27
2018-11-23T14:07:47.031Z,7.63
2018-11-23T14:10:17.881Z,7.47
2018-11-23T14:12:46.686Z,7.00
2018-11-23T14:15:17.083Z,6.97
2018-11-23T14:17:46.416Z,6.87
2018-11-23T14:20:15.681Z,7.13
2018-11-23T14:22:45.055Z,7.23
2018-11-23T14:25:14.885Z,7.23
2018-11-23T14:27:44.101Z,8.10
2018-11-23T14:30:15.137Z,7.70
2018-11-23T14:32:43.921Z,9.33
2018-11-23T14:35:14.208Z,9.47
2018-11-23T14:37:44.288Z,8.80
2018-11-23T14:40:13.217Z,10.43
2018-11-23T14:42:43.518Z,10.73
2018-11-23T14:45:15.413Z,9.73
2018-11-23T14:47:44.210Z,9.97
2018-11-23T14:50:15.941Z,10.00
2018-11-23T14:52:47.226Z,9.03
2018-11-23T14:55:16.346Z,9.17
2018-11-23T14:57:45.368Z,10.60
2018-11-23T15:00:19.549Z,9.57
2018-11-23T15:02:49.500Z,8.13
2018-11-23T15:05:18.476Z,7.87
2018-11-23T15:07:47.185Z,8.40
2018-11-23T15:10:19.974Z,8.80
2018-11-23T15:12:50.561Z,8.77
2018-11-23T15:15:21.377Z,8.67
2018-11-23T15:17:50.948Z,8.57
2018-11-23T15:20:22.206Z,7.10
2018-11-23T15:22:53.596Z,7.87
2018-11-23T15:25:22.633Z,8.20
2018-11-23T15:27:51.187Z,8.17
2018-11-23T15:30:21.963Z,7.73
2018-11-23T15:32:50.532Z,8.17
2018-11-23T15:35:18.990Z,8.50
2018-11-23T15:37:47.581Z,8.50
2018-11-23T15:40:19.417Z,8.60
2018-11-23T15:42:48.759Z,8.47
2018-11-23T15:45:19.610Z,7.63
2018-11-23T15:47:48.485Z,7.37
2018-11-23T15:50:18.486Z,8.33
2018-11-23T15:52:47.891Z,6.60
2018-11-23T15:55:19.722Z,7.00
2018-11-23T15:57:49.044Z,6.57
2018-11-23T16:00:28.454Z,6.90
2018-11-23T16:02:57.078Z,7.10
2018-11-23T16:05:25.703Z,7.00
2018-11-23T16:07:56.793Z,7.47
2018-11-23T16:10:26.544Z,7.63
2018-11-23T16:12:57.563Z,7.40
2018-11-23T16:15:26.673Z,5.80
2018-11-23T16:17:55.407Z,6.70
2018-11-23T16:20:26.421Z,7.20
2018-11-23T16:22:56.373Z,7.10
2018-11-23T16:25:24.873Z,7.00
2018-11-23T16:27:55.121Z,6.97
2018-11-23T16:30:27.667Z,7.17
2018-11-23T16:32:57.340Z,6.70
2018-11-23T16:35:28.126Z,8.20
2018-11-23T16:37:57.592Z,7.90
2018-11-23T16:40:27.555Z,7.40
2018-11-23T16:42:56.789Z,8.03
2018-11-23T16:45:26.736Z,7.77
2018-11-23T16:47:56.794Z,8.00
2018-11-23T16:50:25.587Z,7.67
2018-11-23T16:52:54.604Z,7.57
2018-11-23T16:55:23.589Z,8.57
2018-11-23T16:57:54.229Z,8.90
2018-11-23T17:00:25.990Z,7.70
2018-11-23T17:02:55.404Z,7.70
2018-11-23T17:05:28.718Z,7.10
2018-11-23T17:07:57.345Z,7.67
2018-11-23T17:10:25.962Z,7.37
2018-11-23T17:12:54.618Z,8.17
2018-11-23T17:15:24.612Z,7.87
2018-11-23T17:17:53.378Z,7.40
2018-11-23T17:20:23.880Z,7.50
2018-11-23T17:22:53.458Z,7.70
2018-11-23T17:25:22.907Z,6.67
2018-11-23T17:27:51.893Z,7.70
2018-11-23T17:30:23.766Z,7.87
2018-11-23T17:32:52.965Z,8.23
2018-11-23T17:35:21.753Z,8.37
2018-11-23T17:37:50.325Z,8.20
2018-11-23T17:40:20.253Z,8.60
2018-11-23T17:42:48.834Z,8.17
2018-11-23T17:45:19.234Z,8.83
2018-11-23T17:47:48.133Z,8.57
2018-11-23T17:50:19.135Z,8.20
2018-11-23T17:52:48.175Z,8.73
2018-11-23T17:55:16.856Z,8.93
2018-11-23T17:57:46.153Z,7.97
2018-11-23T18:00:17.593Z,9.13
2018-11-23T18:02:46.710Z,7.80
2018-11-23T18:05:16.728Z,8.70
2018-11-23T18:07:45.458Z,9.87
2018-11-23T18:10:21.360Z,8.90
2018-11-23T18:12:50.297Z,8.73
2018-11-23T18:15:24.892Z,9.70
2018-11-23T18:17:54.395Z,10.33
2018-11-23T18:20:24.147Z,8.97
2018-11-23T18:22:53.586Z,9.13
2018-11-23T18:25:23.498Z,8.87
2018-11-23T18:27:57.238Z,10.17
2018-11-23T18:30:26.479Z,11.00
2018-11-23T18:32:55.089Z,11.20
2018-11-23T18:35:23.745Z,10.67
2018-11-23T18:37:53.165Z,9.57
2018-11-23T18:40:22.000Z,9.17
2018-11-23T18:42:50.677Z,10.73
2018-11-23T18:45:19.844Z,10.57
2018-11-23T18:47:48.527Z,9.17
2018-11-23T18:50:18.353Z,9.13
2018-11-23T18:52:47.491Z,8.87
2018-11-23T18:55:18.248Z,9.80
2018-11-23T18:57:45.775Z,10.03
2018-11-23T19:00:15.491Z,9.67
2018-11-23T19:02:45.188Z,9.80
2018-11-23T19:05:15.044Z,10.30
2018-11-23T19:07:43.656Z,10.27
2018-11-23T19:10:13.930Z,9.80
2018-11-23T19:12:43.152Z,10.00
2018-11-23T19:15:15.709Z,10.87
2018-11-23T19:17:44.243Z,10.70
2018-11-23T19:20:20.651Z,11.07
2018-11-23T19:22:52.154Z,10.53
2018-11-23T19:25:20.716Z,11.40
2018-11-23T19:27:49.242Z,11.70
2018-11-23T19:30:19.007Z,11.23
2018-11-23T19:32:47.553Z,11.60
2018-11-23T19:35:16.859Z,10.57
2018-11-23T19:37:45.423Z,12.20
2018-11-23T19:40:15.356Z,12.90
2018-11-23T19:42:44.662Z,11.60
2018-11-23T19:45:15.384Z,11.53
2018-11-23T19:47:43.930Z,12.67
2018-11-23T19:50:17.627Z,12.37
2018-11-23T19:52:46.530Z,12.23
2018-11-23T19:55:16.683Z,13.53
2018-11-23T19:57:45.885Z,13.07
2018-11-23T20:00:18.957Z,13.93
2018-11-23T20:02:47.751Z,13.33
2018-11-23T20:05:16.454Z,14.43
2018-11-23T20:07:45.659Z,12.97
2018-11-23T20:10:16.820Z,13.90
2018-11-23T20:12:46.051Z,13.10
2018-11-23T20:15:15.744Z,13.00
2018-11-23T20:17:44.409Z,13.37
2018-11-23T20:20:14.251Z,14.43
2018-11-23T20:22:44.082Z,14.50
2018-11-23T20:25:13.802Z,12.87
2018-11-23T20:27:43.594Z,14.77
2018-11-23T20:30:14.187Z,15.63
2018-11-23T20:32:42.754Z,16.33
2018-11-23T20:35:12.443Z,15.67
2018-11-23T20:37:41.018Z,14.33
2018-11-23T20:40:13.831Z,14.77
2018-11-23T20:42:43.053Z,13.10
2018-11-23T20:45:12.379Z,10.27
2018-11-23T20:47:42.296Z,14.27
2018-11-23T20:50:13.749Z,14.03
2018-11-23T20:52:43.284Z,15.80
2018-11-23T20:55:14.603Z,15.20
2018-11-23T20:57:43.146Z,17.27
2018-11-23T21:00:22.003Z,18.37
2018-11-23T21:02:51.767Z,16.93
2018-11-23T21:05:21.223Z,17.90
2018-11-23T21:07:50.244Z,16.90
2018-11-23T21:10:21.551Z,17.33
2018-11-23T21:12:50.290Z,18.20
2018-11-23T21:15:21.738Z,19.10
2018-11-23T21:17:50.328Z,17.43
2018-11-23T21:20:18.987Z,17.50
2018-11-23T21:22:47.472Z,17.40
2018-11-23T21:25:16.004Z,19.03
2018-11-23T21:27:44.541Z,16.80
2018-11-23T21:30:14.337Z,17.13
2018-11-23T21:32:43.466Z,18.23
2018-11-23T21:35:12.824Z,19.60
2018-11-23T21:37:41.328Z,18.43
2018-11-23T21:40:11.815Z,17.67
2018-11-23T21:42:40.475Z,18.03
2018-11-23T21:45:13.439Z,17.77
2018-11-23T21:47:42.068Z,18.07
2018-11-23T21:50:13.452Z,17.60
2018-11-23T21:52:42.740Z,18.27
2018-11-23T21:55:14.289Z,15.97
2018-11-23T21:57:42.889Z,16.73
2018-11-23T22:00:12.715Z,14.43
2018-11-23T22:02:41.352Z,14.60
2018-11-23T22:05:10.187Z,15.33
2018-11-23T22:07:39.542Z,14.93
2018-11-23T22:10:10.531Z,15.20
2018-11-23T22:12:39.895Z,15.77
2018-11-23T22:15:10.317Z,15.53
2018-11-23T22:17:39.151Z,14.50
2018-11-23T22:20:11.886Z,14.97
2018-11-23T22:22:40.643Z,14.57
2018-11-23T22:25:14.293Z,14.90
2018-11-23T22:27:42.948Z,15.17
2018-11-23T22:30:13.751Z,15.50
2018-11-23T22:32:43.002Z,15.27
2018-11-23T22:35:12.639Z,14.47
2018-11-23T22:37:41.159Z,15.67
2018-11-23T22:40:11.658Z,13.97
2018-11-23T22:42:41.194Z,14.07
2018-11-23T22:45:10.935Z,10.17
2018-11-23T22:47:39.578Z,14.70
2018-11-23T22:50:11.773Z,10.70
2018-11-23T22:52:41.272Z,10.03
2018-11-23T22:55:11.168Z,14.23
2018-11-23T22:57:39.732Z,8.93
2018-11-23T23:00:11.193Z,14.37
2018-11-23T23:02:39.728Z,14.37
2018-11-23T23:05:08.361Z,14.30
2018-11-23T23:07:36.882Z,14.50
2018-11-23T23:10:05.596Z,14.37
2018-11-23T23:12:34.467Z,14.90
2018-11-23T23:15:03.065Z,14.03
2018-11-23T23:17:31.640Z,15.37
2018-11-23T23:20:00.555Z,15.93
2018-11-23T23:22:29.164Z,14.47
2018-11-23T23:24:57.766Z,14.47
2018-11-23T23:27:26.412Z,14.40
2018-11-23T23:29:54.958Z,14.47
2018-11-23T23:32:23.707Z,14.57
2018-11-23T23:34:52.288Z,14.30
2018-11-23T23:37:21.002Z,14.33
2018-11-23T23:39:50.290Z,14.97
2018-11-23T23:42:18.856Z,14.63
2018-11-23T23:44:47.350Z,14.77
2018-11-23T23:47:15.926Z,14.47
2018-11-23T23:49:44.787Z,14.37
2018-11-23T23:52:13.455Z,14.43
2018-11-23T23:54:42.863Z,11.27
2018-11-23T23:57:11.402Z,14.13
2018-11-23T23:59:40.131Z,13.80
